EGNR/CEG METAR and TAF weather

Enter ICAO airport designator
Station Type Date Time Source
EGNR METAR 2020/03/31 18:20 UTC NOAA

EGNR 311820Z 32009KT 9999 SCT041 07/03 Q1032


Station Type Date Time Source
EGNR Decoded METAR 2020/03/31 18:20 UTC NOAA

Hawarden, United Kingdom (EGNR) 53-10N 002-59W 0M
Mar 31, 2020 - 02:20 PM EDT / 2020.03.31 1820 UTC
Wind: from the NW (320 degrees) at 10 MPH (9 KT):0
Visibility: greater than 7 mile(s):0
Sky conditions: partly cloudy
Temperature: 44 F (7 C)
Dew Point: 37 F (3 C)
Relative Humidity: 75%
Pressure (altimeter): 30.47 in. Hg (1032 hPa)
ob: EGNR 311820Z 32009KT 9999 SCT041 07/03 Q1032
cycle: 18

Station Type Date Time Source
EGNR TAF 2016/01/23 12:00 UTC NOAA

TAF EGNR 231059Z 2312/2319 15009KT 9999 FEW020
BECMG 2316/2319 BKN014
TEMPO 2317/2319 6000 RA BKN008

Example: see airport list